This is the latest recevied weather packets stored in our database for station/object HA2SKA-1. If no packets are shown the sender has not sent any weather packets the latest 10 day(s).
| Time | Temp. | Humidity | Pressure | Rain* | Wind** | Luminosity | Snow |
|---|---|---|---|---|---|---|---|
| 1777513561 | 2.22° C | 51% | 1029.1 hPa | - | - | - | - |
| 1777512661 | 2.22° C | 50% | 1028.9 hPa | - | - | - | - |
| 1777511761 | 2.78° C | 50% | 1028.9 hPa | - | - | - | - |
| 1777510861 | 3.89° C | 47% | 1028.8 hPa | - | - | - | - |
| 1777509961 | 3.89° C | 47% | 1028.6 hPa | - | - | - | - |
| 1777509061 | 5° C | 44% | 1028.6 hPa | - | - | - | - |
| 1777508161 | 5.56° C | 42% | 1028.5 hPa | - | - | - | - |
| 1777507260 | 5.56° C | 43% | 1028.4 hPa | - | - | - | - |
| 1777506360 | 6.67° C | 39% | 1028.3 hPa | - | - | - | - |
| 1777505460 | 5.56° C | 41% | 1028.3 hPa | - | - | - | - |
| 1777504560 | 3.89° C | 48% | 1028.2 hPa | - | - | - | - |
| 1777503660 | 5° C | 45% | 1028.1 hPa | - | - | - | - |
| 1777502760 | 6.11° C | 40% | 1027.9 hPa | - | - | - | - |
| 1777501860 | 7.22° C | 38% | 1027.7 hPa | - | - | - | - |
| 1777500960 | 7.78° C | 36% | 1027.4 hPa | - | - | - | - |
| 1777500060 | 8.33° C | 35% | 1027.3 hPa | - | - | - | - |
| 1777499160 | 8.89° C | 34% | 1026.9 hPa | - | - | - | - |
| 1777498259 | 8.89° C | 34% | 1026.6 hPa | - | - | - | - |
| 1777497359 | 8.89° C | 34% | 1026.4 hPa | - | - | - | - |
| 1777496459 | 8.89° C | 35% | 1026.1 hPa | - | - | - | - |
| 1777495559 | 8.89° C | 38% | 1026 hPa | - | - | - | - |
| 1777494659 | 9.44° C | 36% | 1025.6 hPa | - | - | - | - |
| 1777493759 | 10° C | 35% | 1025.5 hPa | - | - | - | - |
| 1777492859 | 10.56° C | 34% | 1025.2 hPa | - | - | - | - |
| 1777491959 | 11.11° C | 33% | 1025 hPa | - | - | - | - |
* Rain since midnight (hover to see other rain measurements)
** Current wind speed in m/s (hover to see current wind gust speed)